Time;durP1;ratioP1;P1;durP2;ratioP2;P2;SDS_P1;SDS_P2;PMS_P1;PMS_P2;Temp;Humidity;BMP_temperature;BMP_pressure;BME280_temperature;BME280_humidity;BME280_pressure;Samples;Min_cycle;Max_cycle;Signal;HPM_P1;HPM_P2
2022/01/30 00:02:10;;;;;;;9.83;3.70;;;;;;;0.45;67.95;97102.84;5095439;28;20443;-35
2022/01/30 00:04:37;;;;;;;8.50;4.93;;;;;;;0.45;66.79;97100.25;5095608;28;20486;-35
2022/01/30 00:07:05;;;;;;;11.50;5.70;;;;;;;0.41;66.99;97091.94;5096597;28;20446;-35
2022/01/30 00:09:32;;;;;;;11.27;5.80;;;;;;;0.46;67.35;97083.59;5095657;28;20450;-35
2022/01/30 00:12:04;;;;;;;6.40;4.67;;;;;;;0.51;67.59;97082.09;5095963;28;20479;-35
2022/01/30 00:14:35;;;;;;;15.37;6.07;;;;;;;0.57;67.85;97086.66;5095899;28;20442;-35
2022/01/30 00:17:09;;;;;;;7.80;5.60;;;;;;;0.60;67.46;97078.50;5095494;28;20956;-35
2022/01/30 00:19:40;;;;;;;9.33;5.20;;;;;;;0.66;67.80;97081.44;5095971;28;20516;-34
2022/01/30 00:22:18;;;;;;;17.60;8.00;;;;;;;0.66;67.76;97071.78;5095548;28;20435;-35
2022/01/30 00:24:51;;;;;;;6.90;4.40;;;;;;;0.53;68.38;97051.41;5095574;28;20474;-35
2022/01/30 00:27:27;;;;;;;7.53;3.60;;;;;;;0.62;68.54;97060.03;5095480;28;20446;-35
2022/01/30 00:29:54;;;;;;;19.63;8.43;;;;;;;0.60;68.90;97041.09;5095212;28;20427;-35
2022/01/30 00:32:22;;;;;;;19.37;10.60;;;;;;;0.59;68.72;97036.88;5095150;28;20439;-35
2022/01/30 00:34:49;;;;;;;30.57;14.90;;;;;;;0.58;69.36;97040.44;5094889;28;20471;-37
2022/01/30 00:37:17;;;;;;;33.67;15.77;;;;;;;0.59;69.59;97031.63;5095044;28;20513;-38
2022/01/30 00:39:44;;;;;;;23.10;11.57;;;;;;;0.61;68.73;97021.84;5095226;28;20443;-37
2022/01/30 00:42:11;;;;;;;21.07;8.40;;;;;;;0.62;68.88;97010.38;5095254;28;20443;-38
2022/01/30 00:44:40;;;;;;;9.20;4.90;;;;;;;0.61;68.39;97008.75;5095092;28;20486;-37
2022/01/30 00:47:12;;;;;;;6.17;4.40;;;;;;;0.61;68.06;97008.75;5095175;28;20774;-36
2022/01/30 00:49:40;;;;;;;7.87;4.17;;;;;;;0.60;68.08;97004.50;5094626;28;20481;-38
2022/01/30 00:52:10;;;;;;;8.50;5.50;;;;;;;0.58;68.06;97003.84;5094769;28;20451;-38
2022/01/30 00:54:37;;;;;;;16.90;8.77;;;;;;;0.56;67.71;97000.59;5094761;28;20451;-37
2022/01/30 00:57:05;;;;;;;24.80;10.17;;;;;;;0.55;68.13;96994.56;5094917;28;20446;-37
2022/01/30 00:59:33;;;;;;;19.00;8.90;;;;;;;0.53;68.64;96990.50;5093738;28;20435;-38
2022/01/30 01:02:01;;;;;;;15.53;7.40;;;;;;;0.50;68.02;96983.00;5094837;28;20451;-38
2022/01/30 01:04:28;;;;;;;13.20;6.83;;;;;;;0.46;68.23;96974.69;5093943;28;20482;-37
2022/01/30 01:06:55;;;;;;;6.47;4.87;;;;;;;0.45;68.31;96967.81;5094626;28;20435;-38
2022/01/30 01:09:30;;;;;;;5.67;4.23;;;;;;;0.46;68.17;96958.19;5094485;28;20443;-37
2022/01/30 01:25:42;;;;;;;3.97;3.00;;;;;;;0.28;71.06;96948.78;5094570;28;20515;-38
2022/01/30 01:28:09;;;;;;;6.13;2.80;;;;;;;0.14;69.82;96952.88;5094184;28;20443;-37
2022/01/30 01:30:36;;;;;;;6.37;3.77;;;;;;;-0.06;69.47;96949.81;5094376;28;20451;-38
2022/01/30 01:33:06;;;;;;;5.40;3.20;;;;;;;-0.17;70.41;96937.13;5094044;28;20447;-37
2022/01/30 01:35:33;;;;;;;8.03;3.33;;;;;;;-0.13;71.11;96938.41;5094291;28;20769;-37
2022/01/30 01:38:03;;;;;;;5.33;3.67;;;;;;;-0.10;71.12;96921.59;5094068;28;20449;-37
2022/01/30 01:40:30;;;;;;;7.03;4.47;;;;;;;-0.09;71.05;96918.81;5093896;28;20451;-38
2022/01/30 01:43:01;;;;;;;7.70;5.63;;;;;;;-0.04;71.76;96920.94;5094261;28;20806;-37
2022/01/30 01:45:34;;;;;;;6.80;5.03;;;;;;;-0.03;71.24;96905.09;5094013;28;20548;-36
2022/01/30 01:48:08;;;;;;;11.07;6.13;;;;;;;0.02;71.58;96899.38;5093885;28;20791;-37
2022/01/30 01:50:39;;;;;;;18.63;6.67;;;;;;;0.09;72.01;96895.13;5093694;28;20558;-37
2022/01/30 01:53:08;;;;;;;8.43;5.20;;;;;;;0.04;71.15;96886.16;5094120;28;20438;-35
2022/01/30 01:55:35;;;;;;;15.07;7.30;;;;;;;0.14;71.16;96899.84;5093706;28;20443;-35
2022/01/30 01:58:02;;;;;;;21.47;9.53;;;;;;;0.12;70.67;96883.53;5094057;28;20447;-38
2022/01/30 02:00:30;;;;;;;14.13;7.23;;;;;;;0.09;70.18;96879.47;5094019;28;20524;-35
2022/01/30 02:03:00;;;;;;;29.53;9.67;;;;;;;0.04;70.33;96875.72;5093526;28;20445;-35
2022/01/30 02:05:29;;;;;;;19.47;9.63;;;;;;;-0.01;70.26;96873.63;5093576;28;20489;-36
2022/01/30 02:08:25;;;;;;;14.10;8.60;;;;;;;-0.07;70.83;96872.47;5093775;28;20454;-36
2022/01/30 02:10:58;;;;;;;17.90;9.47;;;;;;;-0.09;71.38;96877.03;5093288;28;20493;-35
2022/01/30 02:24:42;;;;;;;23.30;9.20;;;;;;;-0.37;70.69;96865.38;5093497;28;20464;-36
2022/01/30 02:27:14;;;;;;;19.87;10.87;;;;;;;-0.49;70.95;96841.44;5093826;28;20427;-35
2022/01/30 02:29:41;;;;;;;23.43;10.20;;;;;;;-0.66;70.93;96830.22;5093496;28;20431;-35
2022/01/30 02:32:09;;;;;;;22.40;10.90;;;;;;;-0.58;71.91;96851.06;5093262;28;20443;-35
2022/01/30 02:34:36;;;;;;;23.73;13.00;;;;;;;-0.59;72.13;96844.22;5092740;28;20798;-35
2022/01/30 02:37:03;;;;;;;19.53;10.63;;;;;;;-0.59;72.52;96833.78;5093192;28;20447;-36
2022/01/30 02:39:31;;;;;;;23.70;12.20;;;;;;;-0.60;72.50;96837.38;5093261;28;20438;-36
2022/01/30 02:42:00;;;;;;;20.53;11.30;;;;;;;-0.77;73.11;96814.91;5093167;28;20443;-35
2022/01/30 02:44:32;;;;;;;10.50;6.80;;;;;;;-0.64;72.83;96828.25;5093146;28;20449;-36
2022/01/30 02:47:05;;;;;;;17.47;8.77;;;;;;;-0.62;72.88;96823.69;5093575;28;20474;-37
2022/01/30 02:49:43;;;;;;;16.50;8.10;;;;;;;-0.66;73.11;96823.19;5092933;28;20975;-36
2022/01/30 02:52:11;;;;;;;16.17;8.97;;;;;;;-0.64;73.69;96816.00;5092600;28;20441;-36
2022/01/30 02:54:40;;;;;;;17.80;9.80;;;;;;;-0.64;73.89;96825.66;5093389;28;20453;-36
2022/01/30 02:57:09;;;;;;;23.73;13.33;;;;;;;-0.64;73.63;96812.59;5093128;28;20439;-35
2022/01/30 02:59:37;;;;;;;19.33;9.93;;;;;;;-0.66;74.24;96806.72;5093059;28;20444;-35
2022/01/30 03:02:05;;;;;;;21.00;11.50;;;;;;;-0.65;73.92;96803.94;5092945;28;20443;-36
2022/01/30 03:04:32;;;;;;;23.50;11.67;;;;;;;-0.68;73.40;96803.47;5093229;28;20439;-35
2022/01/30 03:06:59;;;;;;;38.47;13.37;;;;;;;-0.75;72.35;96807.69;5093281;28;20439;-35
2022/01/30 03:09:27;;;;;;;29.30;12.20;;;;;;;-0.94;72.92;96783.63;5092945;28;20447;-35
2022/01/30 03:11:54;;;;;;;18.73;9.93;;;;;;;-0.81;73.38;96783.13;5092858;28;20443;-37
2022/01/30 03:14:22;;;;;;;27.77;11.77;;;;;;;-0.79;73.62;96790.78;5092834;28;20443;-36
2022/01/30 03:16:50;;;;;;;21.10;11.60;;;;;;;-0.80;73.84;96783.94;5093192;28;20451;-36
2022/01/30 03:19:17;;;;;;;22.60;12.20;;;;;;;-0.78;73.82;96792.41;5092859;28;20446;-35
2022/01/30 03:21:44;;;;;;;22.93;12.73;;;;;;;-0.76;74.53;96786.03;5093154;28;20450;-36
2022/01/30 03:24:11;;;;;;;49.70;20.40;;;;;;;-0.75;74.41;96771.19;5095781;28;20934;-36
2022/01/30 03:26:40;;;;;;;66.87;33.77;;;;;;;-0.77;73.85;96767.97;5096496;28;20491;-36
2022/01/30 03:29:08;;;;;;;76.70;34.83;;;;;;;-0.74;73.56;96762.41;5096724;28;20454;-36
2022/01/30 03:31:39;;;;;;;64.53;26.13;;;;;;;-0.77;73.69;96768.78;5097338;28;20439;-36
2022/01/30 03:34:08;;;;;;;47.20;20.13;;;;;;;-0.78;73.58;96779.38;5096605;28;20485;-35
2022/01/30 03:36:36;;;;;;;27.37;13.23;;;;;;;-0.80;74.01;96778.72;5096609;28;20439;-35
2022/01/30 03:39:05;;;;;;;32.57;13.70;;;;;;;-0.82;74.24;96771.06;5096067;28;20934;-35
2022/01/30 03:41:32;;;;;;;23.87;13.17;;;;;;;-0.83;74.05;96765.03;5096122;28;20439;-36
2022/01/30 03:43:59;;;;;;;32.30;15.57;;;;;;;-0.85;73.79;96755.75;5096446;28;20439;-35
2022/01/30 03:46:27;;;;;;;30.70;15.97;;;;;;;-0.87;74.30;96758.50;5096506;28;20493;-36
2022/01/30 03:48:55;;;;;;;30.80;12.60;;;;;;;-0.90;74.33;96743.22;5096035;28;20474;-36
2022/01/30 03:51:22;;;;;;;23.37;11.53;;;;;;;-0.89;74.72;96749.25;5095128;28;20462;-36
2022/01/30 03:53:50;;;;;;;24.27;11.93;;;;;;;-0.89;74.62;96750.03;5096334;28;20447;-36
2022/01/30 03:56:17;;;;;;;30.60;14.03;;;;;;;-0.89;74.00;96749.25;5096757;28;20454;-38
2022/01/30 03:58:44;;;;;;;28.20;14.60;;;;;;;-0.92;74.64;96739.97;5096326;28;20926;-39
2022/01/30 04:01:11;;;;;;;32.27;16.43;;;;;;;-0.95;74.73;96750.69;5095558;28;20447;-41
2022/01/30 04:03:38;;;;;;;27.80;14.60;;;;;;;-0.95;74.83;96747.28;5095991;28;20439;-39
2022/01/30 04:06:09;;;;;;;28.10;13.27;;;;;;;-0.95;75.41;96748.09;5095614;28;20493;-38
2022/01/30 04:08:37;;;;;;;35.63;14.97;;;;;;;-0.91;76.45;96741.56;5096306;28;20447;-36
2022/01/30 04:11:04;;;;;;;25.33;13.70;;;;;;;-0.86;76.02;96747.13;5095535;28;20443;-37
2022/01/30 04:13:32;;;;;;;25.37;11.27;;;;;;;-0.80;75.88;96737.00;5095604;28;20781;-36
2022/01/30 04:15:59;;;;;;;19.60;10.77;;;;;;;-0.80;74.70;96732.59;5095536;28;20911;-36
2022/01/30 04:18:27;;;;;;;21.77;10.70;;;;;;;-0.84;73.98;96737.34;5095767;28;20484;-36
2022/01/30 04:20:54;;;;;;;30.17;12.27;;;;;;;-0.83;74.47;96738.16;5095787;28;20443;-35
2022/01/30 04:23:23;;;;;;;27.63;12.43;;;;;;;-0.83;74.60;96727.72;5095588;28;20804;-36
2022/01/30 04:25:50;;;;;;;33.20;12.17;;;;;;;-0.85;74.46;96720.06;5095578;28;20884;-37
2022/01/30 04:28:19;;;;;;;29.60;10.17;;;;;;;-0.86;74.68;96726.28;5095195;28;20443;-37
2022/01/30 04:30:48;;;;;;;19.63;10.83;;;;;;;-0.86;74.51;96722.81;5095266;28;20443;-36
2022/01/30 04:33:15;;;;;;;22.77;10.00;;;;;;;-0.88;73.70;96717.81;5095477;28;20438;-38
2022/01/30 04:35:44;;;;;;;24.90;10.10;;;;;;;-0.81;73.44;96711.94;5094948;28;20946;-36
2022/01/30 04:38:20;;;;;;;22.13;10.23;;;;;;;-0.79;73.30;96708.16;5095362;28;20505;-36
2022/01/30 04:41:10;;;;;;;16.07;8.37;;;;;;;-0.83;72.35;96691.22;5095092;28;20437;-37
2022/01/30 05:03:04;;;;;;;42.37;17.97;;;;;;;-1.09;73.03;96639.34;5111110;28;20433;-39
2022/01/30 05:05:51;;;;;;;27.80;12.97;;;;;;;-1.08;72.98;96630.53;5114128;28;20470;-38
2022/01/30 05:08:19;;;;;;;22.17;12.70;;;;;;;-1.10;73.02;96632.47;5113993;28;20438;-37
2022/01/30 05:10:46;;;;;;;42.30;18.77;;;;;;;-1.10;73.02;96612.47;5114603;28;20438;-37
2022/01/30 05:13:19;;;;;;;45.00;21.43;;;;;;;-1.09;73.24;96608.88;5115543;28;20444;-37
2022/01/30 05:15:47;;;;;;;33.03;15.60;;;;;;;-1.09;73.71;96595.03;5114738;28;20430;-37
2022/01/30 05:18:19;;;;;;;49.93;22.97;;;;;;;-1.14;73.54;96592.09;5114643;28;20438;-35
2022/01/30 05:20:46;;;;;;;42.90;19.80;;;;;;;-1.14;74.19;96581.69;5114631;28;20464;-38
2022/01/30 05:23:14;;;;;;;26.37;13.77;;;;;;;-1.12;74.68;96572.75;5115070;28;20438;-38
2022/01/30 05:25:41;;;;;;;25.33;15.30;;;;;;;-1.08;75.34;96571.38;5114464;28;20487;-38
2022/01/30 05:28:10;;;;;;;49.00;16.27;;;;;;;-1.04;75.63;96575.28;5114837;28;20515;-35
2022/01/30 05:30:39;;;;;;;52.03;17.60;;;;;;;-1.00;75.10;96583.59;5094059;28;20439;-37
2022/01/30 05:33:06;;;;;;;57.60;19.80;;;;;;;-0.95;75.06;96581.28;5094298;28;20447;-38
2022/01/30 05:35:34;;;;;;;52.97;17.50;;;;;;;-0.88;74.41;96569.22;5094244;28;20462;-39
2022/01/30 05:38:03;;;;;;;31.00;12.70;;;;;;;-0.76;73.80;96563.63;5110198;28;20990;-38
2022/01/30 05:40:31;;;;;;;25.10;12.47;;;;;;;-0.65;72.97;96555.41;5114186;28;20442;-38
2022/01/30 05:42:59;;;;;;;27.80;10.97;;;;;;;-0.66;72.32;96527.72;5113744;28;20450;-39
2022/01/30 05:45:31;;;;;;;219.40;80.90;;;;;;;-0.67;70.01;96518.25;5112066;28;20504;-37
2022/01/30 05:48:04;;;;;;;105.97;45.30;;;;;;;-0.43;69.11;96546.81;5113962;28;20434;-40
2022/01/30 05:50:31;;;;;;;126.83;51.30;;;;;;;-0.11;68.90;96542.31;5113702;28;21032;-39
2022/01/30 05:52:59;;;;;;;37.87;20.47;;;;;;;0.37;66.53;96550.75;5113606;28;20469;-35
2022/01/30 05:55:26;;;;;;;40.07;20.27;;;;;;;0.91;65.08;96556.72;5111761;28;20487;-38
2022/01/30 05:57:53;;;;;;;39.33;17.30;;;;;;;1.43;63.49;96543.47;5113208;28;20449;-37
2022/01/30 06:00:20;;;;;;;29.77;16.53;;;;;;;1.77;62.02;96543.81;5113756;28;20434;-37
2022/01/30 06:02:48;;;;;;;25.33;14.97;;;;;;;2.10;61.33;96544.09;5113626;28;20438;-37
2022/01/30 06:05:18;;;;;;;28.07;13.40;;;;;;;1.99;60.53;96516.63;5112008;28;20805;-36
2022/01/30 06:07:51;;;;;;;35.93;15.77;;;;;;;2.03;61.30;96554.53;5112832;28;20560;-37
2022/01/30 06:10:20;;;;;;;36.97;15.53;;;;;;;2.37;59.95;96554.81;5111082;28;20473;-39
2022/01/30 06:12:47;;;;;;;26.00;14.20;;;;;;;2.72;58.56;96563.50;5092695;28;20443;-39
2022/01/30 06:15:14;;;;;;;21.60;13.23;;;;;;;2.90;57.42;96559.59;5097852;28;20745;-38
2022/01/30 06:17:43;;;;;;;26.17;14.23;;;;;;;2.83;58.27;96552.47;5090873;28;20443;-38
2022/01/30 06:20:10;;;;;;;30.33;13.90;;;;;;;2.70;57.92;96549.00;5091952;28;20439;-37
2022/01/30 06:22:40;;;;;;;42.57;16.40;;;;;;;2.48;57.83;96519.41;5091338;28;20443;-40
2022/01/30 06:25:08;;;;;;;59.47;27.47;;;;;;;2.24;58.33;96534.56;5091723;28;20439;-38
2022/01/30 06:27:36;;;;;;;86.27;42.20;;;;;;;1.99;59.65;96528.91;5091313;28;20490;-37
2022/01/30 06:30:04;;;;;;;67.40;35.20;;;;;;;1.63;61.24;96506.22;5097801;28;20449;-37
2022/01/30 06:32:31;;;;;;;47.07;24.90;;;;;;;1.56;62.70;96513.22;5093623;28;20923;-37
2022/01/30 06:34:59;;;;;;;57.70;24.43;;;;;;;1.58;63.31;96522.50;5093418;28;20443;-34
2022/01/30 06:37:26;;;;;;;58.27;26.27;;;;;;;1.51;63.18;96533.91;5093546;28;20447;-35
2022/01/30 06:39:54;;;;;;;82.90;36.73;;;;;;;1.40;61.44;96516.88;5093044;28;20443;-36
2022/01/30 06:42:22;;;;;;;46.07;22.37;;;;;;;1.35;67.53;96516.59;5092587;28;20447;-35
2022/01/30 06:44:50;;;;;;;36.87;19.73;;;;;;;1.46;67.25;96515.31;5092460;28;21003;-36
2022/01/30 06:47:17;;;;;;;110.70;53.80;;;;;;;1.33;65.36;96505.50;5093263;28;20490;-34
2022/01/30 06:49:44;;;;;;;156.70;70.20;;;;;;;1.12;64.45;96509.72;5092932;28;20479;-37
2022/01/30 06:52:11;;;;;;;129.00;54.03;;;;;;;0.92;64.81;96524.34;5093542;28;20442;-34
2022/01/30 06:54:39;;;;;;;93.37;48.00;;;;;;;0.86;65.57;96520.69;5093421;28;20443;-35
2022/01/30 06:57:08;;;;;;;111.23;47.47;;;;;;;0.72;66.37;96490.94;5093322;28;20443;-34
2022/01/30 06:59:36;;;;;;;85.17;41.30;;;;;;;0.89;67.39;96506.44;5096916;28;20861;-35
2022/01/30 07:02:03;;;;;;;52.30;28.67;;;;;;;0.92;67.68;96477.28;5096805;28;20922;-35
2022/01/30 07:04:30;;;;;;;74.90;34.10;;;;;;;0.98;68.12;96466.91;5096360;28;20439;-36
2022/01/30 07:06:58;;;;;;;100.17;45.80;;;;;;;1.04;69.08;96465.38;5103510;28;20542;-35
2022/01/30 07:09:42;;;;;;;113.57;52.93;;;;;;;1.13;68.88;96473.91;5101035;28;20443;-39
2022/01/30 07:12:11;;;;;;;104.33;51.63;;;;;;;1.21;68.72;96479.03;5101998;28;20917;-34
2022/01/30 07:14:38;;;;;;;86.93;45.07;;;;;;;1.29;67.37;96468.47;5101891;28;20439;-36
2022/01/30 07:17:05;;;;;;;98.70;44.50;;;;;;;1.41;67.14;96468.78;5105589;28;20437;-35
2022/01/30 07:19:32;;;;;;;104.50;52.07;;;;;;;1.52;66.89;96465.66;5103355;28;20442;-35
2022/01/30 07:21:59;;;;;;;99.93;52.17;;;;;;;1.51;66.19;96440.50;5104106;28;20450;-36
2022/01/30 07:24:27;;;;;;;90.33;41.53;;;;;;;1.76;63.91;96461.03;5104749;28;20445;-34
2022/01/30 07:26:54;;;;;;;66.70;30.07;;;;;;;1.91;59.73;96455.72;5103488;28;20490;-36
2022/01/30 07:29:22;;;;;;;53.03;28.30;;;;;;;2.09;57.74;96456.06;5100942;28;20805;-35
2022/01/30 07:31:50;;;;;;;54.30;26.87;;;;;;;2.28;55.37;96451.97;5100349;28;20972;-36
2022/01/30 07:34:20;;;;;;;58.13;29.40;;;;;;;2.50;54.84;96460.56;5096307;28;20942;-34
2022/01/30 07:36:47;;;;;;;60.90;29.80;;;;;;;2.70;53.03;96454.59;5109991;28;20521;-34
2022/01/30 07:39:15;;;;;;;50.87;22.80;;;;;;;2.86;54.26;96452.47;5110422;28;20438;-35
2022/01/30 07:41:43;;;;;;;50.77;24.23;;;;;;;3.16;54.81;96453.97;5106745;28;21018;-37
2022/01/30 07:44:10;;;;;;;45.50;23.23;;;;;;;3.48;58.07;96444.53;5104291;28;20446;-37
2022/01/30 07:46:39;;;;;;;28.60;15.60;;;;;;;3.59;49.79;96453.66;5105638;28;20481;-37
2022/01/30 07:49:06;;;;;;;11.37;5.83;;;;;;;3.55;45.94;96448.00;5103689;28;20970;-37
2022/01/30 07:51:33;;;;;;;12.53;8.97;;;;;;;3.49;42.65;96446.19;5096036;28;20446;-37
2022/01/30 07:54:00;;;;;;;11.50;6.20;;;;;;;3.48;42.22;96444.53;5100704;28;20453;-37
2022/01/30 07:56:27;;;;;;;11.03;8.20;;;;;;;3.45;41.76;96448.38;5116154;28;20454;-35
2022/01/30 07:58:55;;;;;;;8.50;5.97;;;;;;;3.49;42.87;96446.97;5116447;28;20438;-36
2022/01/30 08:01:22;;;;;;;8.43;5.30;;;;;;;3.54;43.79;96441.13;5109094;28;20449;-36
2022/01/30 08:03:50;;;;;;;6.43;5.23;;;;;;;3.58;42.57;96434.47;5104850;28;20445;-34
2022/01/30 08:06:17;;;;;;;7.70;3.63;;;;;;;3.61;43.71;96441.94;5095674;28;20454;-35
2022/01/30 08:08:45;;;;;;;13.63;3.27;;;;;;;3.63;43.63;96429.41;5095566;28;20792;-35
2022/01/30 08:11:12;;;;;;;7.30;3.13;;;;;;;3.69;44.34;96427.81;5095616;28;20435;-36
2022/01/30 08:13:39;;;;;;;34.87;4.50;;;;;;;3.74;44.79;96424.59;5096746;28;20450;-37
2022/01/30 08:16:07;;;;;;;20.50;7.83;;;;;;;3.82;44.68;96408.63;5095441;28;20447;-36
2022/01/30 08:18:37;;;;;;;18.13;7.07;;;;;;;3.91;44.56;96399.53;5095709;28;20802;-36
2022/01/30 08:21:05;;;;;;;6.50;3.60;;;;;;;4.02;45.21;96396.31;5112015;28;20442;-37
2022/01/30 08:23:34;;;;;;;9.90;3.57;;;;;;;4.16;44.89;96398.91;5116017;28;20438;-35
2022/01/30 08:26:01;;;;;;;7.33;3.63;;;;;;;4.34;44.65;96404.31;5115650;28;20445;-35
2022/01/30 08:28:28;;;;;;;9.87;3.93;;;;;;;4.49;44.61;96396.97;5115877;28;20976;-34
2022/01/30 08:30:55;;;;;;;7.53;3.50;;;;;;;4.61;45.19;96391.09;5115689;28;20449;-35
2022/01/30 08:33:23;;;;;;;9.03;5.73;;;;;;;4.70;45.24;96392.47;5115463;28;20449;-36
2022/01/30 08:35:50;;;;;;;12.10;7.70;;;;;;;4.78;44.43;96386.97;5114863;28;20438;-37
2022/01/30 08:38:19;;;;;;;14.00;8.53;;;;;;;4.84;46.20;96369.53;5114870;28;20466;-37
2022/01/30 08:40:46;;;;;;;21.90;10.53;;;;;;;4.85;46.35;96379.84;5115660;28;20450;-37
2022/01/30 08:43:14;;;;;;;25.90;10.77;;;;;;;4.90;46.60;96376.59;5115363;28;20445;-37
2022/01/30 08:45:42;;;;;;;13.13;7.33;;;;;;;5.01;47.56;96372.47;5115542;28;20449;-38
2022/01/30 08:48:09;;;;;;;11.30;6.70;;;;;;;5.07;45.15;96371.63;5115361;28;20485;-37
2022/01/30 08:50:37;;;;;;;7.43;5.70;;;;;;;5.15;45.74;96362.69;5114950;28;20469;-36
2022/01/30 08:53:04;;;;;;;10.13;6.30;;;;;;;5.22;45.85;96380.03;5115572;28;20868;-36
2022/01/30 08:55:33;;;;;;;17.03;8.80;;;;;;;5.34;45.18;96367.03;5115097;28;20448;-37
2022/01/30 08:58:07;;;;;;;13.90;7.70;;;;;;;5.52;45.29;96380.25;5114987;28;20444;-37
2022/01/30 09:00:35;;;;;;;19.07;11.10;;;;;;;5.61;46.67;96388.69;5115005;28;20431;-37
2022/01/30 09:03:02;;;;;;;11.63;7.00;;;;;;;5.76;47.69;96385.72;5115024;28;20446;-37
2022/01/30 09:05:30;;;;;;;11.97;5.17;;;;;;;5.92;48.67;96384.41;5114977;28;20478;-37
2022/01/30 09:07:57;;;;;;;8.60;4.60;;;;;;;6.15;48.20;96376.72;5115028;28;20559;-37
2022/01/30 09:10:24;;;;;;;2.40;2.20;;;;;;;6.36;48.04;96377.28;5114806;28;20453;-38
2022/01/30 09:12:53;;;;;;;8.73;2.97;;;;;;;6.46;48.03;96366.25;5114719;28;20809;-38
2022/01/30 09:15:20;;;;;;;4.50;2.60;;;;;;;6.64;47.51;96368.06;5113230;28;20439;-37
2022/01/30 09:17:48;;;;;;;3.47;2.40;;;;;;;7.04;47.75;96365.72;5113365;28;20499;-36
2022/01/30 09:20:15;;;;;;;4.10;1.97;;;;;;;7.32;46.25;96343.19;5114013;28;20442;-34
2022/01/30 09:22:43;;;;;;;4.03;2.53;;;;;;;7.50;46.78;96352.88;5114481;28;20449;-37
2022/01/30 09:25:12;;;;;;;2.80;1.53;;;;;;;7.54;46.32;96359.31;5114611;28;20933;-36
2022/01/30 09:27:39;;;;;;;3.77;1.70;;;;;;;7.53;46.28;96374.38;5114391;28;20517;-37
2022/01/30 09:30:09;;;;;;;4.30;2.53;;;;;;;7.57;46.42;96345.63;5106402;28;20950;-38
2022/01/30 09:32:37;;;;;;;3.37;2.37;;;;;;;7.65;46.41;96361.16;5093534;28;20443;-37
2022/01/30 09:35:05;;;;;;;2.80;2.00;;;;;;;7.71;46.11;96344.38;5093967;28;20439;-37
2022/01/30 09:37:32;;;;;;;1.67;1.50;;;;;;;8.04;45.45;96337.72;5093834;28;20522;-38
2022/01/30 09:40:02;;;;;;;4.20;1.50;;;;;;;8.36;45.15;96340.00;5093776;28;20530;-37
2022/01/30 09:42:29;;;;;;;2.00;1.53;;;;;;;8.74;44.99;96333.38;5093750;28;20450;-36
2022/01/30 09:45:00;;;;;;;1.90;1.70;;;;;;;8.75;44.96;96330.47;5093886;28;20438;-36
2022/01/30 09:47:29;;;;;;;2.60;1.53;;;;;;;8.71;44.59;96331.19;5092756;28;20494;-38
2022/01/30 09:49:57;;;;;;;3.50;2.23;;;;;;;8.54;46.06;96316.06;5093013;28;20474;-36
2022/01/30 09:52:25;;;;;;;5.40;2.20;;;;;;;8.62;45.80;96328.09;5093124;28;20445;-35
2022/01/30 09:54:52;;;;;;;2.70;2.37;;;;;;;8.49;45.60;96302.72;5093686;28;20439;-34
2022/01/30 09:57:22;;;;;;;5.60;2.37;;;;;;;8.59;46.59;96326.75;5093718;28;20447;-37
2022/01/30 09:59:50;;;;;;;2.70;1.90;;;;;;;8.65;46.93;96303.00;5093645;28;20427;-37
2022/01/30 10:02:18;;;;;;;4.97;2.33;;;;;;;8.59;47.04;96292.34;5093855;28;20471;-37
2022/01/30 10:04:47;;;;;;;4.17;2.87;;;;;;;8.69;47.52;96309.44;5093866;28;20439;-37
2022/01/30 10:07:15;;;;;;;6.60;2.60;;;;;;;8.72;47.50;96291.25;5093464;28;20497;-37
2022/01/30 10:09:48;;;;;;;11.40;4.03;;;;;;;8.72;47.63;96293.91;5093571;28;20531;-36
2022/01/30 10:12:19;;;;;;;15.50;3.70;;;;;;;8.63;48.01;96270.72;5093481;28;20443;-37
2022/01/30 10:14:55;;;;;;;8.70;3.87;;;;;;;8.87;47.69;96269.56;5093771;28;20442;-37
2022/01/30 10:17:31;;;;;;;14.60;4.70;;;;;;;9.13;47.75;96265.50;5093701;28;20457;-36
2022/01/30 10:20:08;;;;;;;18.07;5.20;;;;;;;9.36;48.17;96274.34;5093483;28;20428;-38
2022/01/30 10:22:37;;;;;;;12.17;5.03;;;;;;;9.55;47.91;96277.53;5093752;28;20434;-36
2022/01/30 10:25:05;;;;;;;6.60;3.10;;;;;;;9.62;47.61;96255.13;5093380;28;20496;-38
2022/01/30 10:27:33;;;;;;;4.60;3.90;;;;;;;9.75;47.53;96251.34;5093199;28;20490;-36
2022/01/30 10:30:03;;;;;;;9.63;2.90;;;;;;;9.84;47.24;96257.81;5093353;28;20451;-36
2022/01/30 10:32:31;;;;;;;9.70;3.43;;;;;;;9.95;47.13;96247.38;5095250;28;20450;-36
2022/01/30 10:35:01;;;;;;;14.67;4.23;;;;;;;9.93;46.93;96205.16;5097261;28;20519;-35
2022/01/30 10:37:30;;;;;;;6.63;3.10;;;;;;;9.96;46.50;96206.53;5097548;28;20450;-34
2022/01/30 10:40:06;;;;;;;7.13;3.03;;;;;;;10.06;46.64;96188.09;5097729;28;20836;-34
2022/01/30 10:42:45;;;;;;;5.37;3.20;;;;;;;10.28;46.68;96189.94;5097689;28;20426;-34
2022/01/30 10:45:15;;;;;;;11.00;4.30;;;;;;;10.33;46.01;96182.88;5097578;28;20449;-36
2022/01/30 10:47:44;;;;;;;17.73;4.10;;;;;;;10.47;46.39;96172.66;5097082;28;20829;-46
2022/01/30 10:50:14;;;;;;;12.13;7.00;;;;;;;10.53;45.96;96155.72;5097088;28;20470;-35
2022/01/30 10:52:59;;;;;;;3.30;2.23;;;;;;;10.61;44.98;96163.25;5096992;28;20446;-36
2022/01/30 10:55:38;;;;;;;9.33;5.10;;;;;;;10.68;45.33;96181.59;5097119;28;20431;-36
2022/01/30 10:58:06;;;;;;;4.20;2.67;;;;;;;10.73;44.98;96176.34;5097257;28;20426;-36
2022/01/30 11:00:39;;;;;;;21.93;11.90;;;;;;;10.79;44.86;96180.63;5097473;28;20435;-35
2022/01/30 11:03:07;;;;;;;5.60;3.60;;;;;;;10.71;45.06;96159.06;5096957;28;20446;-36
2022/01/30 11:05:59;;;;;;;10.40;5.47;;;;;;;10.75;44.79;96168.13;5096815;28;20443;-34
2022/01/30 11:08:30;;;;;;;10.90;5.17;;;;;;;10.72;45.42;96164.13;5097068;28;20479;-37
2022/01/30 11:11:04;;;;;;;9.40;4.43;;;;;;;10.83;45.73;96159.72;5096777;28;20431;-35
2022/01/30 11:13:46;;;;;;;13.37;5.63;;;;;;;10.90;45.27;96160.28;5097017;28;20761;-37
2022/01/30 11:19:00;;;;;;;4.93;3.10;;;;;;;11.08;45.37;96167.09;5096994;28;20418;-36
2022/01/30 11:21:28;;;;;;;3.27;2.03;;;;;;;11.15;44.88;96151.72;5096466;28;20439;-35
2022/01/30 11:24:01;;;;;;;4.30;3.17;;;;;;;11.18;44.90;96140.56;5096441;28;20449;-34
2022/01/30 11:26:29;;;;;;;3.37;3.07;;;;;;;11.25;44.69;96140.38;5096522;28;20423;-36
2022/01/30 11:28:58;;;;;;;7.73;4.83;;;;;;;11.33;45.43;96142.53;5098753;28;20874;-34
2022/01/30 11:31:25;;;;;;;5.97;3.37;;;;;;;11.41;45.57;96138.59;5116567;28;20437;-37
2022/01/30 11:33:54;;;;;;;7.17;5.90;;;;;;;11.46;44.58;96141.28;5117013;28;20446;-37
2022/01/30 11:36:23;;;;;;;2.87;1.53;;;;;;;11.47;44.60;96149.00;5099037;28;20446;-37
2022/01/30 11:38:51;;;;;;;1.57;1.47;;;;;;;11.45;44.53;96148.44;5097585;28;20450;-38
2022/01/30 11:41:21;;;;;;;2.17;1.50;;;;;;;11.42;44.08;96146.31;5096188;28;20942;-38
2022/01/30 11:44:29;;;;;;;8.53;3.93;;;;;;;11.45;44.56;96143.13;5095498;28;20429;-37
2022/01/30 11:47:24;;;;;;;1.70;1.60;;;;;;;11.33;45.43;96137.22;5096153;28;20482;-37
2022/01/30 11:50:05;;;;;;;3.73;2.10;;;;;;;11.32;45.10;96134.81;5096084;28;20494;-37
2022/01/30 11:52:53;;;;;;;4.13;2.13;;;;;;;11.26;45.26;96134.00;5095930;28;20435;-35
2022/01/30 11:55:50;;;;;;;10.70;5.23;;;;;;;11.15;45.08;96145.59;5095593;28;20450;-36
2022/01/30 11:58:38;;;;;;;2.40;2.20;;;;;;;10.91;45.47;96143.31;5098161;28;20446;-36
2022/01/30 12:01:07;;;;;;;5.60;2.80;;;;;;;10.79;46.76;96163.91;5081421;28;20455;-37
2022/01/30 12:03:36;;;;;;;9.40;5.00;;;;;;;10.73;46.82;96164.91;5107419;28;20468;-35
2022/01/30 12:06:29;;;;;;;5.77;2.80;;;;;;;10.45;46.38;96153.50;5116099;28;20487;-36
2022/01/30 12:08:57;;;;;;;8.70;4.70;;;;;;;10.26;46.86;96139.78;5104021;28;20578;-36
2022/01/30 12:11:52;;;;;;;19.03;8.07;;;;;;;10.25;47.11;96148.78;5095451;28;20481;-36
2022/01/30 12:14:55;;;;;;;12.90;7.73;;;;;;;10.21;48.22;96156.44;5095552;28;20447;-36
2022/01/30 12:17:59;;;;;;;10.60;7.67;;;;;;;10.18;47.42;96156.94;5097859;28;20442;-37
2022/01/30 12:20:27;;;;;;;6.60;4.90;;;;;;;10.20;47.46;96165.44;5095736;28;20876;-38
2022/01/30 12:22:55;;;;;;;12.50;6.60;;;;;;;10.23;47.10;96143.72;5095864;28;20453;-37
2022/01/30 12:25:38;;;;;;;6.67;5.90;;;;;;;10.21;46.97;96159.09;5095625;28;20514;-36
2022/01/30 12:28:15;;;;;;;5.83;1.90;;;;;;;10.29;46.49;96143.78;5095581;28;20467;-39
2022/01/30 12:30:49;;;;;;;3.53;1.60;;;;;;;10.39;45.75;96138.59;5094946;28;20443;-39